createdAt,value
2023-04-24T00:00:25.448Z,13.00
2023-04-24T00:01:25.461Z,12.99
2023-04-24T00:02:25.633Z,12.99
2023-04-24T00:03:25.547Z,12.99
2023-04-24T00:04:25.509Z,12.99
2023-04-24T00:05:25.388Z,12.96
2023-04-24T00:06:25.383Z,12.97
2023-04-24T00:07:25.387Z,12.97
2023-04-24T00:08:25.387Z,12.96
2023-04-24T00:09:25.363Z,12.96
2023-04-24T00:10:25.343Z,12.97
2023-04-24T00:11:25.331Z,12.93
2023-04-24T00:12:25.341Z,12.93
2023-04-24T00:13:25.304Z,12.93
2023-04-24T00:14:25.320Z,12.92
2023-04-24T00:15:25.278Z,12.92
2023-04-24T00:16:25.386Z,12.93
2023-04-24T00:17:25.330Z,12.93
2023-04-24T00:18:25.247Z,12.93
2023-04-24T00:19:25.245Z,12.92
2023-04-24T00:20:25.248Z,12.92
2023-04-24T00:21:25.212Z,12.92
2023-04-24T00:22:25.215Z,12.92
2023-04-24T00:23:25.188Z,12.92
2023-04-24T00:24:25.181Z,12.92
2023-04-24T00:25:25.179Z,12.92
2023-04-24T00:26:25.177Z,12.92
2023-04-24T00:27:25.173Z,12.89
2023-04-24T00:28:25.126Z,12.89
2023-04-24T00:29:25.123Z,12.88
2023-04-24T00:30:25.114Z,12.88
2023-04-24T00:31:25.133Z,12.85
2023-04-24T00:32:25.137Z,12.84
2023-04-24T00:33:25.078Z,12.82
2023-04-24T00:34:25.070Z,12.79
2023-04-24T00:35:25.060Z,12.77
2023-04-24T00:36:25.052Z,12.74
2023-04-24T00:37:25.070Z,12.70
2023-04-24T00:38:25.031Z,12.66
2023-04-24T00:39:25.016Z,12.63
2023-04-24T00:40:25.007Z,12.62
2023-04-24T00:41:24.985Z,12.59
2023-04-24T00:42:24.995Z,12.56
2023-04-24T00:43:24.969Z,12.51
2023-04-24T00:44:24.952Z,12.49
2023-04-24T00:45:24.956Z,12.48
2023-04-24T00:46:24.958Z,12.46
2023-04-24T00:47:24.942Z,12.44
2023-04-24T00:48:24.910Z,12.41
2023-04-24T00:49:24.898Z,12.38
2023-04-24T00:50:24.893Z,12.34
2023-04-24T00:51:24.874Z,12.31
2023-04-24T00:52:24.910Z,12.29
2023-04-24T00:53:24.870Z,12.26
2023-04-24T00:54:24.857Z,12.26
2023-04-24T00:55:24.834Z,12.23
2023-04-24T00:56:24.828Z,12.21
2023-04-24T00:57:24.832Z,12.19
2023-04-24T00:58:24.811Z,12.13
2023-04-24T00:59:24.792Z,12.09
2023-04-24T01:00:24.777Z,12.09
2023-04-24T01:01:24.807Z,12.09
2023-04-24T01:02:25.628Z,12.05
2023-04-24T01:03:24.837Z,12.02
2023-04-24T01:04:24.854Z,12.02
2023-04-24T01:05:24.739Z,12.01
2023-04-24T01:06:24.714Z,11.99
2023-04-24T01:07:24.733Z,11.97
2023-04-24T01:08:24.692Z,11.94
2023-04-24T01:09:24.680Z,11.94
2023-04-24T01:10:24.661Z,11.93
2023-04-24T01:11:24.661Z,11.93
2023-04-24T01:12:24.662Z,11.93
2023-04-24T01:13:24.639Z,11.90
2023-04-24T01:14:24.629Z,11.90
2023-04-24T01:15:24.616Z,11.90
2023-04-24T01:16:24.753Z,11.89
2023-04-24T01:17:24.636Z,11.93
2023-04-24T01:18:24.594Z,11.93
2023-04-24T01:19:24.573Z,11.93
2023-04-24T01:20:24.573Z,11.94
2023-04-24T01:21:24.562Z,11.94
2023-04-24T01:22:24.569Z,11.94
2023-04-24T01:23:24.528Z,11.94
2023-04-24T01:24:24.511Z,11.94
2023-04-24T01:25:24.503Z,11.96
2023-04-24T01:26:24.530Z,11.96
2023-04-24T01:27:24.534Z,11.97
2023-04-24T01:28:24.480Z,11.97
2023-04-24T01:29:24.497Z,11.96
2023-04-24T01:30:24.480Z,11.96
2023-04-24T01:31:24.468Z,11.97
2023-04-24T01:32:24.460Z,11.97
2023-04-24T01:33:24.417Z,11.96
2023-04-24T01:34:24.414Z,11.97
2023-04-24T01:35:24.399Z,11.99
2023-04-24T01:36:26.562Z,11.99
2023-04-24T01:37:24.406Z,11.97
2023-04-24T01:38:24.365Z,11.97
2023-04-24T01:39:24.361Z,11.96
2023-04-24T01:40:24.351Z,11.94
2023-04-24T01:41:24.326Z,11.94
2023-04-24T01:42:24.342Z,11.94
2023-04-24T01:43:24.304Z,11.87
2023-04-24T01:44:24.386Z,11.87
2023-04-24T01:45:24.290Z,11.85
2023-04-24T01:46:24.323Z,11.85
2023-04-24T01:47:24.296Z,11.80
2023-04-24T01:48:24.257Z,11.78
2023-04-24T01:49:24.241Z,11.77
2023-04-24T01:50:24.249Z,11.75
2023-04-24T01:51:24.226Z,11.71
2023-04-24T01:52:24.235Z,11.70
2023-04-24T01:53:24.190Z,11.65
2023-04-24T01:54:24.206Z,11.61
2023-04-24T01:55:24.179Z,11.57
2023-04-24T01:56:24.166Z,11.59
2023-04-24T01:57:24.165Z,11.57
2023-04-24T01:58:24.142Z,11.53
2023-04-24T01:59:24.136Z,11.50
2023-04-24T02:00:24.120Z,11.49
2023-04-24T02:01:24.131Z,11.47
2023-04-24T02:02:24.251Z,11.44
2023-04-24T02:03:24.290Z,11.44
2023-04-24T02:04:24.129Z,11.43
2023-04-24T02:05:24.070Z,11.43
2023-04-24T02:06:24.046Z,11.41
2023-04-24T02:07:24.067Z,11.39
2023-04-24T02:08:24.037Z,11.39
2023-04-24T02:09:24.021Z,11.36
2023-04-24T02:10:24.023Z,11.35
2023-04-24T02:11:24.004Z,11.32
2023-04-24T02:12:24.003Z,11.29
2023-04-24T02:13:23.969Z,11.27
2023-04-24T02:14:23.968Z,11.25
2023-04-24T02:15:23.954Z,11.27
2023-04-24T02:16:23.969Z,11.24
2023-04-24T02:17:24.042Z,11.24
2023-04-24T02:18:23.920Z,11.21
2023-04-24T02:19:23.906Z,11.17
2023-04-24T02:20:23.889Z,11.16
2023-04-24T02:21:23.877Z,11.16
2023-04-24T02:22:23.870Z,11.13
2023-04-24T02:23:23.871Z,11.10
2023-04-24T02:24:23.862Z,11.07
2023-04-24T02:25:23.844Z,11.06
2023-04-24T02:26:23.835Z,11.06
2023-04-24T02:27:23.806Z,11.02
2023-04-24T02:28:23.824Z,11.01
2023-04-24T02:29:23.790Z,10.96
2023-04-24T02:30:23.778Z,10.98
2023-04-24T02:31:23.893Z,10.96
2023-04-24T02:32:23.753Z,10.95
2023-04-24T02:33:23.761Z,10.94
2023-04-24T02:34:23.726Z,10.94
2023-04-24T02:35:23.804Z,10.94
2023-04-24T02:36:23.718Z,10.91
2023-04-24T02:37:23.697Z,10.88
2023-04-24T02:38:23.712Z,10.88
2023-04-24T02:39:23.674Z,10.86
2023-04-24T02:40:23.666Z,10.84
2023-04-24T02:41:23.647Z,10.84
2023-04-24T02:42:23.652Z,10.83
2023-04-24T02:43:23.707Z,10.81
2023-04-24T02:44:23.644Z,10.83
2023-04-24T02:45:23.609Z,10.80
2023-04-24T02:46:23.673Z,10.80
2023-04-24T02:47:23.628Z,10.78
2023-04-24T02:48:23.589Z,10.78
2023-04-24T02:49:23.559Z,10.77
2023-04-24T02:50:23.557Z,10.77
2023-04-24T02:51:23.556Z,10.76
2023-04-24T02:52:23.516Z,10.76
2023-04-24T02:53:23.541Z,10.71
2023-04-24T02:54:23.498Z,10.73
2023-04-24T02:55:23.488Z,10.73
2023-04-24T02:56:23.478Z,10.71
2023-04-24T02:57:23.498Z,10.70
2023-04-24T02:58:23.486Z,10.70
2023-04-24T02:59:23.452Z,10.70
2023-04-24T03:00:23.433Z,10.65
2023-04-24T03:01:23.498Z,10.66
2023-04-24T03:02:23.515Z,10.63
2023-04-24T03:03:23.499Z,10.62
2023-04-24T03:04:23.513Z,10.63
2023-04-24T03:05:23.393Z,10.60
2023-04-24T03:06:23.366Z,10.60
2023-04-24T03:07:23.361Z,10.59
2023-04-24T03:08:23.360Z,10.55
2023-04-24T03:09:23.331Z,10.53
2023-04-24T03:10:23.331Z,10.52
2023-04-24T03:11:23.318Z,10.47
2023-04-24T03:12:23.304Z,10.46
2023-04-24T03:13:23.310Z,10.44
2023-04-24T03:14:23.274Z,10.43
2023-04-24T03:15:23.269Z,10.42
2023-04-24T03:16:23.313Z,10.40
2023-04-24T03:17:23.251Z,10.40
2023-04-24T03:18:23.268Z,10.36
2023-04-24T03:19:23.223Z,10.37
2023-04-24T03:20:23.211Z,10.36
2023-04-24T03:21:23.204Z,10.34
2023-04-24T03:22:23.197Z,10.34
2023-04-24T03:23:23.210Z,10.33
2023-04-24T03:24:23.169Z,10.34
2023-04-24T03:25:23.199Z,10.33
2023-04-24T03:26:23.159Z,10.32
2023-04-24T03:27:23.141Z,10.30
2023-04-24T03:28:23.140Z,10.30
2023-04-24T03:29:23.122Z,10.28
2023-04-24T03:30:23.102Z,10.28
2023-04-24T03:31:23.131Z,10.24
2023-04-24T03:32:23.097Z,10.24
2023-04-24T03:33:23.092Z,10.22
2023-04-24T03:34:23.085Z,10.21
2023-04-24T03:35:23.057Z,10.19
2023-04-24T03:36:23.041Z,10.19
2023-04-24T03:37:23.031Z,10.17
2023-04-24T03:38:23.053Z,10.17
2023-04-24T03:39:23.012Z,10.12
2023-04-24T03:40:22.994Z,10.10
2023-04-24T03:41:22.992Z,10.10
2023-04-24T03:42:22.980Z,10.10
2023-04-24T03:43:22.972Z,10.10
2023-04-24T03:44:22.950Z,10.10
2023-04-24T03:45:22.959Z,10.09
2023-04-24T03:46:23.093Z,10.10
2023-04-24T03:47:22.947Z,10.10
2023-04-24T03:48:22.930Z,10.10
2023-04-24T03:49:22.925Z,10.07
2023-04-24T03:50:22.886Z,10.07
2023-04-24T03:51:22.880Z,10.06
2023-04-24T03:52:22.865Z,10.04
2023-04-24T03:53:22.865Z,10.03
2023-04-24T03:54:22.845Z,10.00
2023-04-24T03:55:22.827Z,10.00
2023-04-24T03:56:22.815Z,10.00
2023-04-24T03:57:22.798Z,9.96
2023-04-24T03:58:22.808Z,9.96
2023-04-24T03:59:22.788Z,9.94
2023-04-24T04:00:22.778Z,9.96
2023-04-24T04:01:22.767Z,9.97
2023-04-24T04:02:22.850Z,9.97
2023-04-24T04:03:22.885Z,9.96
2023-04-24T04:04:22.943Z,9.96
2023-04-24T04:05:22.864Z,9.99
2023-04-24T04:06:22.740Z,10.00
2023-04-24T04:07:22.712Z,10.01
2023-04-24T04:08:22.706Z,10.00
2023-04-24T04:09:22.709Z,9.99
2023-04-24T04:10:22.656Z,9.97
2023-04-24T04:11:22.654Z,9.93
2023-04-24T04:12:22.661Z,9.89
2023-04-24T04:13:22.652Z,9.88
2023-04-24T04:14:22.665Z,9.86
2023-04-24T04:15:22.606Z,9.83
2023-04-24T04:16:22.637Z,9.85
2023-04-24T04:17:22.607Z,9.85
2023-04-24T04:18:22.605Z,9.83
2023-04-24T04:19:22.565Z,9.82
2023-04-24T04:20:22.562Z,9.79
2023-04-24T04:21:22.663Z,9.78
2023-04-24T04:22:22.529Z,9.78
2023-04-24T04:23:22.535Z,9.79
2023-04-24T04:24:22.513Z,9.79
2023-04-24T04:25:24.482Z,9.79
2023-04-24T04:26:22.481Z,9.81
2023-04-24T04:27:22.526Z,9.82
2023-04-24T04:28:22.506Z,9.83
2023-04-24T04:29:22.476Z,9.86
2023-04-24T04:30:22.456Z,9.89
2023-04-24T04:31:22.451Z,9.96
2023-04-24T04:32:22.418Z,9.97
2023-04-24T04:33:22.430Z,10.01
2023-04-24T04:34:22.404Z,10.04
2023-04-24T04:35:23.140Z,10.09
2023-04-24T04:36:22.375Z,10.14
2023-04-24T04:37:22.364Z,10.15
2023-04-24T04:38:22.371Z,10.18
2023-04-24T04:39:22.338Z,10.18
2023-04-24T04:40:22.342Z,10.22
2023-04-24T04:41:22.322Z,10.25
2023-04-24T04:42:22.309Z,10.28
2023-04-24T04:43:22.314Z,10.28
2023-04-24T04:44:22.297Z,10.32
2023-04-24T04:45:22.283Z,10.30
2023-04-24T04:46:22.343Z,10.32
2023-04-24T04:47:22.294Z,10.30
2023-04-24T04:48:22.268Z,10.30
2023-04-24T04:49:22.233Z,10.28
2023-04-24T04:50:22.219Z,10.25
2023-04-24T04:51:22.214Z,10.24
2023-04-24T04:52:22.206Z,10.25
2023-04-24T04:53:22.204Z,10.26
2023-04-24T04:54:22.176Z,10.28
2023-04-24T04:55:22.177Z,10.26
2023-04-24T04:56:22.154Z,10.28
2023-04-24T04:57:22.148Z,10.26
2023-04-24T04:58:22.164Z,10.26
2023-04-24T04:59:22.123Z,10.26
2023-04-24T05:00:22.115Z,10.28
2023-04-24T05:01:22.136Z,10.25
2023-04-24T05:02:22.187Z,10.24
2023-04-24T05:03:22.211Z,10.24
2023-04-24T05:04:22.361Z,10.24
2023-04-24T05:05:22.054Z,10.22
2023-04-24T05:06:24.250Z,10.24
2023-04-24T05:07:22.039Z,10.26
2023-04-24T05:08:27.001Z,10.28
2023-04-24T05:09:22.019Z,10.28
2023-04-24T05:10:22.006Z,10.30
2023-04-24T05:11:21.993Z,10.30
2023-04-24T05:12:21.984Z,10.30
2023-04-24T05:13:35.575Z,10.30
2023-04-24T05:14:21.977Z,10.30
2023-04-24T05:15:21.950Z,10.30
2023-04-24T05:16:21.971Z,10.32
2023-04-24T05:17:21.960Z,10.32
2023-04-24T05:18:21.939Z,10.32
2023-04-24T05:19:21.940Z,10.34
2023-04-24T05:20:21.896Z,10.37
2023-04-24T05:21:21.905Z,10.37
2023-04-24T05:22:21.907Z,10.37
2023-04-24T05:23:21.872Z,10.34
2023-04-24T05:24:21.845Z,10.34
2023-04-24T05:25:21.834Z,10.36
2023-04-24T05:26:21.842Z,10.43
2023-04-24T05:27:21.815Z,10.46
2023-04-24T05:28:21.826Z,10.51
2023-04-24T05:29:21.829Z,10.51
2023-04-24T05:30:21.804Z,10.52
2023-04-24T05:31:21.809Z,10.51
2023-04-24T05:32:21.768Z,10.55
2023-04-24T05:33:21.778Z,10.56
2023-04-24T05:34:21.747Z,10.58
2023-04-24T05:35:21.742Z,10.59
2023-04-24T05:36:21.738Z,10.60
2023-04-24T05:37:21.728Z,10.59
2023-04-24T05:38:21.770Z,10.58
2023-04-24T05:39:28.244Z,10.56
2023-04-24T05:40:21.682Z,10.58
2023-04-24T05:41:21.668Z,10.58
2023-04-24T05:42:21.705Z,10.59
2023-04-24T05:43:21.689Z,10.62
2023-04-24T05:44:21.658Z,10.63
2023-04-24T05:45:21.638Z,10.68
2023-04-24T05:46:21.627Z,10.74
2023-04-24T05:47:21.614Z,10.76
2023-04-24T05:48:21.618Z,10.77
2023-04-24T05:49:21.632Z,10.80
2023-04-24T05:50:21.588Z,10.84
2023-04-24T05:51:21.587Z,10.86
2023-04-24T05:52:21.604Z,10.86
2023-04-24T05:53:21.543Z,10.89
2023-04-24T05:54:21.567Z,10.89
2023-04-24T05:55:21.521Z,10.88
2023-04-24T05:56:21.558Z,10.84
2023-04-24T05:57:21.547Z,10.86
2023-04-24T05:58:21.498Z,10.86
2023-04-24T05:59:21.560Z,10.89
2023-04-24T06:00:21.491Z,10.88
2023-04-24T06:01:21.484Z,10.88
2023-04-24T06:02:21.492Z,10.89
2023-04-24T06:03:21.555Z,10.94
2023-04-24T06:04:21.843Z,10.94
2023-04-24T06:05:21.466Z,10.92
2023-04-24T06:06:21.432Z,10.99
2023-04-24T06:07:21.405Z,11.03
2023-04-24T06:08:21.443Z,11.11
2023-04-24T06:09:21.405Z,11.13
2023-04-24T06:10:21.395Z,11.14
2023-04-24T06:11:21.341Z,11.14
2023-04-24T06:12:21.361Z,11.19
2023-04-24T06:13:21.351Z,11.24
2023-04-24T06:14:21.350Z,11.25
2023-04-24T06:15:21.311Z,11.28
2023-04-24T06:16:21.369Z,11.31
2023-04-24T06:17:21.347Z,11.29
2023-04-24T06:18:21.292Z,11.34
2023-04-24T06:19:21.285Z,11.35
2023-04-24T06:20:21.252Z,11.36
2023-04-24T06:21:21.229Z,11.34
2023-04-24T06:22:21.276Z,11.41
2023-04-24T06:23:21.251Z,11.47
2023-04-24T06:24:21.234Z,11.49
2023-04-24T06:25:21.198Z,11.53
2023-04-24T06:26:21.195Z,11.56
2023-04-24T06:27:21.193Z,11.59
2023-04-24T06:28:21.149Z,11.57
2023-04-24T06:29:21.196Z,11.62
2023-04-24T06:30:21.142Z,11.65
2023-04-24T06:31:21.171Z,11.70
2023-04-24T06:32:21.260Z,11.71
2023-04-24T06:33:23.005Z,11.75
2023-04-24T06:34:21.125Z,11.85
2023-04-24T06:35:21.076Z,11.90
2023-04-24T06:36:21.085Z,11.96
2023-04-24T06:37:21.049Z,12.05
2023-04-24T06:38:21.050Z,12.08
2023-04-24T06:39:21.070Z,12.04
2023-04-24T06:40:21.035Z,12.06
2023-04-24T06:41:20.998Z,12.05
2023-04-24T06:42:20.978Z,12.04
2023-04-24T06:43:20.971Z,12.08
2023-04-24T06:44:20.988Z,12.09
2023-04-24T06:45:21.021Z,12.12
2023-04-24T06:46:21.007Z,12.12
2023-04-24T06:47:20.972Z,12.13
2023-04-24T06:48:20.936Z,12.20
2023-04-24T06:49:21.006Z,12.24
2023-04-24T06:50:20.918Z,12.29
2023-04-24T06:51:20.900Z,12.34
2023-04-24T06:52:20.900Z,12.38
2023-04-24T06:53:20.888Z,12.44
2023-04-24T06:54:20.896Z,12.51
2023-04-24T06:55:20.870Z,12.49
2023-04-24T06:56:20.850Z,12.57
2023-04-24T06:57:21.044Z,12.59
2023-04-24T06:58:20.829Z,12.66
2023-04-24T06:59:20.819Z,12.67
2023-04-24T07:00:20.831Z,12.66
2023-04-24T07:01:20.819Z,12.74
2023-04-24T07:02:20.829Z,12.79
2023-04-24T07:03:20.926Z,12.88
2023-04-24T07:04:20.937Z,12.96
2023-04-24T07:05:20.767Z,12.96
2023-04-24T07:06:20.735Z,13.02
2023-04-24T07:07:20.722Z,13.06
2023-04-24T07:08:20.750Z,13.12
2023-04-24T07:09:20.746Z,13.04
2023-04-24T07:10:20.686Z,13.02
2023-04-24T07:11:20.683Z,13.00
2023-04-24T07:12:20.681Z,13.00
2023-04-24T07:13:20.659Z,13.06
2023-04-24T07:14:20.646Z,13.12
2023-04-24T07:15:20.731Z,13.15
2023-04-24T07:16:20.663Z,13.17
2023-04-24T07:17:20.671Z,13.15
2023-04-24T07:18:20.606Z,13.21
2023-04-24T07:19:21.033Z,13.21
2023-04-24T07:20:20.595Z,13.22
2023-04-24T07:21:20.630Z,13.32
2023-04-24T07:22:20.544Z,13.40
2023-04-24T07:23:20.559Z,13.49
2023-04-24T07:24:22.281Z,13.54
2023-04-24T07:25:20.572Z,13.61
2023-04-24T07:26:20.506Z,13.62
2023-04-24T07:27:20.538Z,13.62
2023-04-24T07:28:20.497Z,13.61
2023-04-24T07:29:20.497Z,13.69
2023-04-24T07:30:20.489Z,13.74
2023-04-24T07:31:20.525Z,13.69
2023-04-24T07:32:20.438Z,13.63
2023-04-24T07:33:20.481Z,13.67
2023-04-24T07:34:20.422Z,13.65
2023-04-24T07:35:20.400Z,13.61
2023-04-24T07:36:20.426Z,13.55
2023-04-24T07:37:20.489Z,13.54
2023-04-24T07:38:20.393Z,13.44
2023-04-24T07:39:20.411Z,13.51
2023-04-24T07:40:20.368Z,13.55
2023-04-24T07:41:20.358Z,13.61
2023-04-24T07:42:20.354Z,13.63
2023-04-24T07:43:20.338Z,13.62
2023-04-24T07:44:20.333Z,13.67
2023-04-24T07:45:20.287Z,13.71
2023-04-24T07:46:20.308Z,13.70
2023-04-24T07:47:20.284Z,13.67
2023-04-24T07:48:20.253Z,13.69
2023-04-24T07:49:20.281Z,13.70
2023-04-24T07:50:20.230Z,13.71
2023-04-24T07:51:20.215Z,13.70
2023-04-24T07:52:20.242Z,13.73
2023-04-24T07:53:20.208Z,13.74
2023-04-24T07:54:20.255Z,13.77
2023-04-24T07:55:23.249Z,13.74
2023-04-24T07:56:20.189Z,13.73
2023-04-24T07:57:20.179Z,13.83
2023-04-24T07:58:20.165Z,13.94
2023-04-24T07:59:20.146Z,13.92
2023-04-24T08:00:20.143Z,13.91
2023-04-24T08:01:20.120Z,13.84
2023-04-24T08:02:20.118Z,13.87
2023-04-24T08:03:20.199Z,13.92
2023-04-24T08:04:20.295Z,13.99
2023-04-24T08:05:20.224Z,14.04
2023-04-24T08:06:20.076Z,14.10
2023-04-24T08:07:20.062Z,14.13
2023-04-24T08:08:20.031Z,14.14
2023-04-24T08:09:20.063Z,14.16
2023-04-24T08:10:20.039Z,14.14
2023-04-24T08:11:20.002Z,14.14
2023-04-24T08:12:20.558Z,14.13
2023-04-24T08:13:19.975Z,14.10
2023-04-24T08:14:19.984Z,14.06
2023-04-24T08:15:19.955Z,14.10
2023-04-24T08:16:20.017Z,14.10
2023-04-24T08:17:19.943Z,14.06
2023-04-24T08:18:19.993Z,14.02
2023-04-24T08:19:19.942Z,14.06
2023-04-24T08:20:19.895Z,14.07
2023-04-24T08:21:19.921Z,14.07
2023-04-24T08:22:19.883Z,14.10
2023-04-24T08:23:19.873Z,14.12
2023-04-24T08:24:19.878Z,14.09
2023-04-24T08:25:19.868Z,14.02
2023-04-24T08:26:19.832Z,13.89
2023-04-24T08:27:19.810Z,13.84
2023-04-24T08:28:19.842Z,13.87
2023-04-24T08:29:19.850Z,13.87
2023-04-24T08:30:19.798Z,13.88
2023-04-24T08:31:19.780Z,13.91
2023-04-24T08:32:19.834Z,13.95
2023-04-24T08:33:19.749Z,13.99
2023-04-24T08:34:19.796Z,14.02
2023-04-24T08:35:19.731Z,14.01
2023-04-24T08:36:19.738Z,14.04
2023-04-24T08:37:19.708Z,14.06
2023-04-24T08:38:19.724Z,14.10
2023-04-24T08:39:19.712Z,14.16
2023-04-24T08:40:19.714Z,14.17
2023-04-24T08:41:19.679Z,14.14
2023-04-24T08:42:19.658Z,14.21
2023-04-24T08:43:19.643Z,14.24
2023-04-24T08:44:19.654Z,14.25
2023-04-24T08:45:19.616Z,14.29
2023-04-24T08:46:19.669Z,14.39
2023-04-24T08:47:19.608Z,14.44
2023-04-24T08:48:29.733Z,14.42
2023-04-24T08:49:19.598Z,14.43
2023-04-24T08:50:19.625Z,14.47
2023-04-24T08:51:19.556Z,14.56
2023-04-24T08:52:19.547Z,14.68
2023-04-24T08:53:19.518Z,14.74
2023-04-24T08:54:19.526Z,14.87
2023-04-24T08:55:19.498Z,14.84
2023-04-24T08:56:19.507Z,14.90
2023-04-24T08:57:19.513Z,14.93
2023-04-24T08:58:19.497Z,14.91
2023-04-24T08:59:19.481Z,14.87
2023-04-24T09:00:19.485Z,14.84
2023-04-24T09:01:19.486Z,14.71
2023-04-24T09:02:19.528Z,14.65
2023-04-24T09:03:19.508Z,14.53
2023-04-24T09:04:19.622Z,14.53
2023-04-24T09:05:19.408Z,14.50
2023-04-24T09:06:19.395Z,14.52
2023-04-24T09:07:19.398Z,14.60
2023-04-24T09:08:19.388Z,14.67
2023-04-24T09:09:19.371Z,14.64
2023-04-24T09:10:19.371Z,14.61
2023-04-24T09:11:19.347Z,14.61
2023-04-24T09:12:19.335Z,14.62
2023-04-24T09:13:19.310Z,14.62
2023-04-24T09:14:19.336Z,14.65
2023-04-24T09:15:19.277Z,14.52
2023-04-24T09:16:19.351Z,14.46
2023-04-24T09:17:19.264Z,14.39
2023-04-24T09:18:19.271Z,14.37
2023-04-24T09:19:19.261Z,14.32
2023-04-24T09:20:19.268Z,14.28
2023-04-24T09:21:19.216Z,14.21
2023-04-24T09:22:19.219Z,14.14
2023-04-24T09:23:19.198Z,14.09
2023-04-24T09:24:19.248Z,14.04
2023-04-24T09:25:19.176Z,14.09
2023-04-24T09:26:19.151Z,14.07
2023-04-24T09:27:19.142Z,13.95
2023-04-24T09:28:19.142Z,13.89
2023-04-24T09:29:19.155Z,13.89
2023-04-24T09:30:19.247Z,13.84
2023-04-24T09:31:19.251Z,13.87
2023-04-24T09:32:19.131Z,13.84
2023-04-24T09:33:19.081Z,13.88
2023-04-24T09:34:19.133Z,13.89
2023-04-24T09:35:19.077Z,13.94
2023-04-24T09:36:19.070Z,13.94
2023-04-24T09:37:19.230Z,13.94
2023-04-24T09:38:19.035Z,13.92
2023-04-24T09:39:19.032Z,13.96
2023-04-24T09:40:19.047Z,13.95
2023-04-24T09:41:18.988Z,13.98
2023-04-24T09:42:18.975Z,13.98
2023-04-24T09:43:18.980Z,13.91
2023-04-24T09:44:18.983Z,13.84
2023-04-24T09:45:18.955Z,13.87
2023-04-24T09:46:19.002Z,13.83
2023-04-24T09:47:18.959Z,13.80
2023-04-24T09:48:18.925Z,13.80
2023-04-24T09:49:18.924Z,13.81
2023-04-24T09:50:20.506Z,13.79
2023-04-24T09:51:18.911Z,13.77
2023-04-24T09:52:18.878Z,13.79
2023-04-24T09:53:18.864Z,13.76
2023-04-24T09:54:18.869Z,13.70
2023-04-24T09:55:18.831Z,13.70
2023-04-24T09:56:18.819Z,13.69
2023-04-24T09:57:18.826Z,13.70
2023-04-24T09:58:18.801Z,13.67
2023-04-24T09:59:18.817Z,13.67
2023-04-24T10:00:18.809Z,13.73
2023-04-24T10:01:18.825Z,13.70
2023-04-24T10:02:18.868Z,13.73
2023-04-24T10:03:18.773Z,13.76
2023-04-24T10:04:18.759Z,13.80
2023-04-24T10:05:18.730Z,13.69
2023-04-24T10:06:18.708Z,13.67
2023-04-24T10:07:18.706Z,13.70
2023-04-24T10:08:18.688Z,13.70
2023-04-24T10:09:18.711Z,13.74
2023-04-24T10:10:18.699Z,13.79
2023-04-24T10:11:18.706Z,13.87
2023-04-24T10:12:18.642Z,13.95
2023-04-24T10:13:18.671Z,13.99
2023-04-24T10:14:18.646Z,14.07
2023-04-24T10:15:18.694Z,14.01
2023-04-24T10:16:18.626Z,14.07
2023-04-24T10:17:18.610Z,14.10
2023-04-24T10:18:18.621Z,14.10
2023-04-24T10:19:18.575Z,14.16
2023-04-24T10:20:18.578Z,14.25
2023-04-24T10:21:18.554Z,14.27
2023-04-24T10:22:18.537Z,14.21
2023-04-24T10:23:18.570Z,14.14
2023-04-24T10:24:18.510Z,14.10
2023-04-24T10:25:18.510Z,13.98
2023-04-24T10:26:18.502Z,13.96
2023-04-24T10:27:18.480Z,14.02
2023-04-24T10:28:18.470Z,14.04
2023-04-24T10:29:18.468Z,14.01
2023-04-24T10:30:18.497Z,13.91
2023-04-24T10:31:18.461Z,13.96
2023-04-24T10:32:18.443Z,14.02
2023-04-24T10:33:18.423Z,14.09
2023-04-24T10:34:18.435Z,14.10
2023-04-24T10:35:18.403Z,14.13
2023-04-24T10:36:18.370Z,14.02
2023-04-24T10:37:18.358Z,13.99
2023-04-24T10:38:18.371Z,13.95
2023-04-24T10:39:18.351Z,14.01
2023-04-24T10:40:18.334Z,13.96
2023-04-24T10:41:18.314Z,13.94
2023-04-24T10:42:18.310Z,14.01
2023-04-24T10:43:18.307Z,14.12
2023-04-24T10:44:18.305Z,14.21
2023-04-24T10:45:18.284Z,14.35
2023-04-24T10:46:18.304Z,14.52
2023-04-24T10:47:18.261Z,14.64
2023-04-24T10:48:18.322Z,14.69
2023-04-24T10:49:18.243Z,14.72
2023-04-24T10:50:18.211Z,14.84
2023-04-24T10:51:18.208Z,14.87
2023-04-24T10:52:18.198Z,14.91
2023-04-24T10:53:18.183Z,14.94
2023-04-24T10:54:18.185Z,14.98
2023-04-24T10:55:18.150Z,14.93
2023-04-24T10:56:18.161Z,14.88
2023-04-24T10:57:18.141Z,14.80
2023-04-24T10:58:18.125Z,14.72
2023-04-24T10:59:18.105Z,14.67
2023-04-24T11:00:18.127Z,14.69
2023-04-24T11:01:18.117Z,14.71
2023-04-24T11:02:18.182Z,14.71
2023-04-24T11:03:18.330Z,14.69
2023-04-24T11:04:18.145Z,14.69
2023-04-24T11:05:18.083Z,14.56
2023-04-24T11:06:18.039Z,14.57
2023-04-24T11:07:18.027Z,14.65
2023-04-24T11:08:18.025Z,14.60
2023-04-24T11:09:18.002Z,14.57
2023-04-24T11:10:18.010Z,14.61
2023-04-24T11:11:17.992Z,14.69
2023-04-24T11:12:17.976Z,14.71
2023-04-24T11:13:17.993Z,14.75
2023-04-24T11:14:17.966Z,14.87
2023-04-24T11:15:17.961Z,14.95
2023-04-24T11:16:17.939Z,15.05
2023-04-24T11:17:17.907Z,15.11
2023-04-24T11:18:17.928Z,15.15
2023-04-24T11:19:17.896Z,15.20
2023-04-24T11:20:27.577Z,15.21
2023-04-24T11:21:17.941Z,15.24
2023-04-24T11:22:17.869Z,15.19
2023-04-24T11:23:17.930Z,15.20
2023-04-24T11:24:17.861Z,15.13
2023-04-24T11:25:17.838Z,15.06
2023-04-24T11:26:17.825Z,14.88
2023-04-24T11:27:17.822Z,14.81
2023-04-24T11:28:17.798Z,14.71
2023-04-24T11:29:20.234Z,14.60
2023-04-24T11:30:17.806Z,14.56
2023-04-24T11:31:17.757Z,14.52
2023-04-24T11:32:17.781Z,14.49
2023-04-24T11:33:17.762Z,14.31
2023-04-24T11:34:17.742Z,14.27
2023-04-24T11:35:17.756Z,14.19
2023-04-24T11:36:17.715Z,14.19
2023-04-24T11:37:17.711Z,14.25
2023-04-24T11:39:25.101Z,14.34
2023-04-24T11:40:17.691Z,14.37
2023-04-24T11:41:17.650Z,14.44
2023-04-24T11:42:17.645Z,14.53
2023-04-24T11:43:17.656Z,14.62
2023-04-24T11:44:17.633Z,14.57
2023-04-24T11:45:17.633Z,14.62
2023-04-24T11:46:17.675Z,14.67
2023-04-24T11:47:17.581Z,14.72
2023-04-24T11:48:17.561Z,14.80
2023-04-24T11:49:17.563Z,14.83
2023-04-24T11:50:17.548Z,14.80
2023-04-24T11:51:17.520Z,14.75
2023-04-24T11:52:17.533Z,14.71
2023-04-24T11:53:17.533Z,14.68
2023-04-24T11:54:17.521Z,14.62
2023-04-24T11:55:17.522Z,14.57
2023-04-24T11:56:17.484Z,14.50
2023-04-24T11:57:17.480Z,14.46
2023-04-24T11:58:17.467Z,14.37
2023-04-24T11:59:17.461Z,14.34
2023-04-24T12:00:17.741Z,14.25
2023-04-24T12:01:17.433Z,14.24
2023-04-24T12:02:17.452Z,14.19
2023-04-24T12:03:17.565Z,14.13
2023-04-24T12:04:17.856Z,14.09
2023-04-24T12:05:17.828Z,13.94
2023-04-24T12:06:17.404Z,13.91
2023-04-24T12:07:17.370Z,13.87
2023-04-24T12:08:17.351Z,13.84
2023-04-24T12:09:18.561Z,13.81
2023-04-24T12:10:17.362Z,13.77
2023-04-24T12:11:17.312Z,13.74
2023-04-24T12:12:17.308Z,13.71
2023-04-24T12:13:17.290Z,13.69
2023-04-24T12:14:17.432Z,13.67
2023-04-24T12:15:17.289Z,13.67
2023-04-24T12:16:17.311Z,13.69
2023-04-24T12:17:17.262Z,13.70
2023-04-24T12:18:17.264Z,13.73
2023-04-24T12:19:17.222Z,13.74
2023-04-24T12:20:17.251Z,13.81
2023-04-24T12:21:17.215Z,13.80
2023-04-24T12:22:17.191Z,13.77
2023-04-24T12:23:17.185Z,13.77
2023-04-24T12:24:17.168Z,13.70
2023-04-24T12:25:17.172Z,13.69
2023-04-24T12:26:17.169Z,13.70
2023-04-24T12:27:17.150Z,13.73
2023-04-24T12:28:17.121Z,13.69
2023-04-24T12:29:17.118Z,13.65
2023-04-24T12:30:17.126Z,13.61
2023-04-24T12:31:17.179Z,13.61
2023-04-24T12:32:17.063Z,13.61
2023-04-24T12:33:17.115Z,13.61
2023-04-24T12:34:17.053Z,13.62
2023-04-24T12:35:17.090Z,13.58
2023-04-24T12:36:17.049Z,13.55
2023-04-24T12:37:17.023Z,13.56
2023-04-24T12:38:17.027Z,13.58
2023-04-24T12:39:17.010Z,13.63
2023-04-24T12:40:16.998Z,13.65
2023-04-24T12:41:16.983Z,13.67
2023-04-24T12:42:16.977Z,13.67
2023-04-24T12:43:17.014Z,13.67
2023-04-24T12:44:16.938Z,13.59
2023-04-24T12:45:16.953Z,13.59
2023-04-24T12:46:18.358Z,13.61
2023-04-24T12:47:16.972Z,13.59
2023-04-24T12:48:16.982Z,13.58
2023-04-24T12:49:16.890Z,13.61
2023-04-24T12:50:16.907Z,13.61
2023-04-24T12:51:16.906Z,13.63
2023-04-24T12:52:16.869Z,13.56
2023-04-24T12:53:16.847Z,13.56
2023-04-24T12:54:16.875Z,13.61